Aeroporto :
LOGIN :

Iscrizione | Disclaimer

   EN    FR    IT 

 










Sommario :    VFR   VFR Marginale   IFR   IFR Intensivo   IFR Molto Intensivo
Visibilità : 
Base nubi : 
>= 8 km
>= 3000ft
5 / 8 km
1000 / 3000 ft
1500m / 5 km
500 / 1000 ft
800 / 1500m
200 / 500 ft
< 800m
< 200 ft
Simboli :   Temporali  Nebbia  Neve Forte  Precipitazioni Forti  Vento > 20 kt
SIGMETs :   Varie  Temporali  Ghiacco  Turbolenza  Onda orograficha  Ceneri Vulcaniche







- Altitudine del aeroporto : 410 ft
- Codice IATA : AVB


LIPA - Aviano AB Pordenone

ULTIMO METAR :
  • 161955Z 03005KT CAVOK 04/02 Q1029 RMK SKC VIS MIN 9999 WIND THR05 02004KT WIND THR23 02004KT A3040 BLU

METARs OBSOLETI :
  • 161855Z 02004KT CAVOK 06/03 Q1029 RMK SKC VIS MIN 9999 WIND THR05 09004KT WIND THR23 05004KT A3040 BLU
  • 161755Z 03004KT CAVOK 08/02 Q1028 RMK SCT SCT200 VIS MIN 9999 WIND THR05 05005KT WIND THR23 04003KT A3038 BLU

TAF TAF LIPA
Valido dal 16 a 18 ore il 17 a 03 ore UTC


161700Z 1618/1703 25005KT CAVOK
TEMPO 1618/1703 5000 BR NSC
Nessun NOTAM noto per questo aeroporto.



MetMap, La meteo Aeronautica in un colpo d'occhio ! - Copyright ORBIFLY Dicembre 2007 - Disclaimer

ORBIFLY MET'MAP TEAM :

Programmazione e sviluppo : Alexandra Zaïnal
Concezione e sviluppo : Baudouin d'Aumeries
Co-Programmazione e sviluppo : Marc-Olivier Méhu
Supporto tecnico e logistico : Manuel Goepfert
Aiuto per la traduzione : Arnaldo La Scala

Contatto : metmap@orbifly.com




FONTI E CREDITI :

   NOAA